Time;durP1;ratioP1;P1;durP2;ratioP2;P2;SDS_P1;SDS_P2;PMS_P1;PMS_P2;Temp;Humidity;BMP_temperature;BMP_pressure;BME280_temperature;BME280_humidity;BME280_pressure;Samples;Min_cycle;Max_cycle;Signal;HPM_P1;HPM_P2
2023/03/03 00:00:29;;;;;;;69.03;35.58;;;1.20;99.90;;;;;;5118794;27;20092;-75
2023/03/03 00:03:03;;;;;;;66.82;34.72;;;1.20;99.90;;;;;;5118990;27;20715;-75
2023/03/03 00:05:32;;;;;;;86.72;36.97;;;1.10;99.90;;;;;;5094512;28;20046;-75
2023/03/03 00:07:58;;;;;;;110.07;41.08;;;1.10;99.90;;;;;;5106210;28;20058;-75
2023/03/03 00:10:24;;;;;;;87.57;41.40;;;1.10;99.90;;;;;;5110083;28;20043;-75
2023/03/03 00:12:50;;;;;;;113.55;45.08;;;1.10;99.90;;;;;;5120535;28;20090;-75
2023/03/03 00:15:22;;;;;;;121.88;44.75;;;1.10;99.90;;;;;;5116588;28;20039;-75
2023/03/03 00:17:48;;;;;;;123.60;47.60;;;1.10;99.90;;;;;;5112475;28;20039;-75
2023/03/03 00:20:40;;;;;;;93.30;42.00;;;1.10;99.90;;;;;;5112155;28;20134;-75
2023/03/03 00:23:28;;;;;;;110.45;42.63;;;1.10;99.90;;;;;;5112974;28;20498;-75
2023/03/03 00:25:54;;;;;;;112.63;40.72;;;1.10;99.90;;;;;;5123230;28;20054;-75
2023/03/03 00:28:23;;;;;;;74.47;39.20;;;1.00;99.90;;;;;;5119464;27;20036;-75
2023/03/03 00:30:50;;;;;;;110.07;44.35;;;1.10;99.90;;;;;;5111487;28;20082;-75
2023/03/03 00:33:44;;;;;;;91.03;40.42;;;1.00;99.90;;;;;;5111270;28;20907;-75
2023/03/03 00:36:30;;;;;;;131.13;45.80;;;1.00;99.90;;;;;;5126749;27;20040;-75
2023/03/03 00:39:12;;;;;;;141.23;50.25;;;1.10;99.90;;;;;;5118136;28;20047;-75
2023/03/03 00:41:38;;;;;;;160.48;51.58;;;1.00;99.90;;;;;;5125925;27;20050;-75
2023/03/03 00:44:44;;;;;;;137.63;48.58;;;1.00;99.90;;;;;;5124568;28;20050;-75
2023/03/03 00:47:42;;;;;;;139.73;50.65;;;1.10;99.90;;;;;;5093432;28;20098;-75
2023/03/03 00:50:09;;;;;;;;;;;1.10;99.90;;;;;;5115592;28;20080;-75
2023/03/03 00:53:00;;;;;;;197.00;52.50;;;1.10;99.90;;;;;;5117556;28;19949;-75
2023/03/03 00:55:26;;;;;;;180.32;55.28;;;1.10;99.90;;;;;;5107544;28;20605;-75
2023/03/03 00:57:52;;;;;;;271.75;63.08;;;1.10;99.90;;;;;;5112653;28;20050;-75
2023/03/03 01:00:18;;;;;;;186.95;58.17;;;1.10;99.90;;;;;;5118274;27;20048;-75
2023/03/03 01:02:45;;;;;;;206.43;59.28;;;1.10;99.90;;;;;;5128978;27;20046;-75
2023/03/03 01:05:15;;;;;;;239.07;65.40;;;1.10;99.90;;;;;;5127121;27;20050;-75
2023/03/03 01:07:41;;;;;;;250.25;62.45;;;1.10;99.90;;;;;;5124901;27;20481;-75
2023/03/03 01:10:08;;;;;;;137.30;49.42;;;1.20;99.90;;;;;;5119064;27;20051;-75
2023/03/03 01:12:34;;;;;;;161.65;52.08;;;1.10;99.90;;;;;;5121820;27;20133;-75
2023/03/03 01:15:01;;;;;;;93.80;43.47;;;1.20;99.90;;;;;;5115520;27;20983;-75
2023/03/03 01:17:27;;;;;;;134.40;44.75;;;1.20;99.90;;;;;;5126259;27;20067;-75
2023/03/03 01:19:53;;;;;;;182.60;51.13;;;1.20;99.90;;;;;;5129136;27;20039;-75
2023/03/03 01:22:19;;;;;;;201.50;53.60;;;1.10;99.90;;;;;;5116269;27;20054;-75
2023/03/03 01:24:44;;;;;;;193.80;53.28;;;1.10;99.90;;;;;;5096278;28;20200;-75
2023/03/03 01:27:10;;;;;;;185.23;53.90;;;1.10;99.90;;;;;;5124626;27;20699;-75
2023/03/03 01:29:35;;;;;;;135.25;47.25;;;1.10;99.90;;;;;;5115141;27;20043;-75
2023/03/03 01:32:01;;;;;;;142.07;47.42;;;1.20;99.90;;;;;;5120374;27;20672;-75
2023/03/03 01:34:27;;;;;;;160.05;51.10;;;1.20;99.90;;;;;;5125734;27;20038;-75
2023/03/03 01:36:53;;;;;;;130.48;46.17;;;1.20;99.90;;;;;;5121330;27;20044;-75
2023/03/03 01:39:18;;;;;;;116.50;44.75;;;1.20;99.90;;;;;;5122402;27;20568;-75
2023/03/03 01:41:44;;;;;;;145.20;48.50;;;1.20;99.90;;;;;;5120739;27;20077;-75
2023/03/03 01:44:16;;;;;;;136.73;50.38;;;1.20;99.90;;;;;;5119221;27;20079;-75
2023/03/03 01:46:53;;;;;;;123.40;46.47;;;1.30;99.90;;;;;;5119954;27;20073;-75
2023/03/03 01:49:35;;;;;;;82.00;42.38;;;1.30;99.90;;;;;;5128071;27;20131;-75
2023/03/03 01:52:09;;;;;;;95.70;41.50;;;1.30;99.90;;;;;;5136067;27;20130;-75
2023/03/03 01:54:40;;;;;;;101.18;42.38;;;1.30;99.90;;;;;;5100140;27;20120;-75
2023/03/03 01:57:13;;;;;;;88.55;40.38;;;1.30;99.90;;;;;;5119674;27;20047;-75
2023/03/03 01:59:45;;;;;;;79.03;37.15;;;1.40;99.90;;;;;;5128472;27;20544;-75
2023/03/03 02:02:13;;;;;;;171.13;49.20;;;1.40;99.90;;;;;;5117552;27;20059;-75
2023/03/03 02:04:39;;;;;;;187.63;52.30;;;1.40;99.90;;;;;;5125482;27;20100;-75
2023/03/03 02:07:09;;;;;;;151.45;47.53;;;1.40;99.90;;;;;;5101670;27;20047;-75
2023/03/03 02:09:50;;;;;;;104.82;43.33;;;1.40;99.90;;;;;;5117905;27;20055;-76
2023/03/03 02:12:18;;;;;;;90.70;43.65;;;1.50;99.90;;;;;;5124164;27;20154;-75
2023/03/03 02:14:44;;;;;;;78.13;39.00;;;1.50;99.90;;;;;;5118808;27;20054;-75
2023/03/03 02:17:10;;;;;;;110.13;42.20;;;1.50;99.90;;;;;;5124546;27;20054;-75
2023/03/03 02:19:53;;;;;;;88.00;39.25;;;1.50;99.90;;;;;;5117335;27;20078;-75
2023/03/03 02:22:29;;;;;;;168.38;55.78;;;1.60;99.90;;;;;;5118081;27;20560;-76
2023/03/03 02:25:00;;;;;;;67.00;36.75;;;1.60;99.90;;;;;;5112499;27;20051;-76
2023/03/03 02:27:29;;;;;;;72.35;37.75;;;1.60;99.90;;;;;;5117905;27;20775;-76
2023/03/03 02:29:55;;;;;;;89.40;42.90;;;1.60;99.90;;;;;;5120377;27;20039;-75
2023/03/03 02:32:20;;;;;;;94.57;43.25;;;1.60;99.90;;;;;;5124126;27;20484;-76
2023/03/03 02:34:49;;;;;;;98.35;39.83;;;1.70;99.90;;;;;;5107253;27;20529;-76
2023/03/03 02:37:15;;;;;;;76.15;37.55;;;1.60;99.90;;;;;;5115737;27;20040;-76
2023/03/03 02:39:40;;;;;;;80.80;36.67;;;1.70;99.90;;;;;;5116662;27;20070;-75
2023/03/03 02:42:17;;;;;;;61.83;35.88;;;1.70;99.90;;;;;;5111910;27;20381;-75
2023/03/03 02:44:43;;;;;;;69.43;36.50;;;1.70;99.90;;;;;;5123812;27;20442;-76
2023/03/03 02:47:08;;;;;;;69.47;37.70;;;1.70;99.90;;;;;;5108833;27;20080;-76
2023/03/03 02:49:35;;;;;;;71.55;36.30;;;1.70;99.90;;;;;;5107119;28;20092;-75
2023/03/03 02:52:05;;;;;;;77.25;38.88;;;1.70;99.90;;;;;;5111227;27;20055;-76
2023/03/03 02:54:32;;;;;;;68.70;38.95;;;1.80;99.90;;;;;;5118382;27;20441;-75
2023/03/03 02:56:59;;;;;;;65.82;36.80;;;1.80;99.90;;;;;;5104607;28;20048;-76
2023/03/03 02:59:24;;;;;;;64.60;37.67;;;1.90;99.90;;;;;;5114909;27;20051;-75
2023/03/03 03:01:51;;;;;;;72.55;37.92;;;1.90;99.90;;;;;;5109911;27;20051;-75
2023/03/03 03:04:20;;;;;;;72.22;37.17;;;1.90;99.90;;;;;;5106294;28;20050;-76
2023/03/03 03:06:45;;;;;;;174.10;53.42;;;1.90;99.90;;;;;;5105424;27;20500;-75
2023/03/03 03:09:12;;;;;;;77.70;39.08;;;1.90;99.90;;;;;;5109087;27;20104;-76
2023/03/03 03:11:38;;;;;;;86.43;40.60;;;1.90;99.90;;;;;;5105357;27;20047;-75
2023/03/03 03:14:06;;;;;;;73.10;37.97;;;1.90;99.90;;;;;;5100966;28;20772;-76
2023/03/03 03:16:31;;;;;;;134.90;44.95;;;2.00;99.90;;;;;;5106021;27;20512;-75
2023/03/03 03:18:58;;;;;;;143.60;45.20;;;2.00;99.90;;;;;;5103784;28;20051;-75
2023/03/03 03:21:24;;;;;;;70.43;36.20;;;2.00;99.90;;;;;;5104881;27;20063;-75
2023/03/03 03:23:49;;;;;;;80.07;38.03;;;2.00;99.90;;;;;;5088900;28;20035;-75
2023/03/03 03:26:15;;;;;;;82.15;39.85;;;2.00;99.90;;;;;;5102795;27;20044;-75
2023/03/03 03:28:41;;;;;;;88.57;37.80;;;2.00;99.90;;;;;;5106861;28;20039;-75
2023/03/03 03:31:09;;;;;;;78.50;40.63;;;2.00;99.90;;;;;;5106328;27;20035;-75
2023/03/03 03:33:35;;;;;;;76.88;40.10;;;2.00;99.90;;;;;;5106383;28;20077;-75
2023/03/03 03:36:02;;;;;;;149.90;50.40;;;2.10;99.90;;;;;;5099210;27;20078;-75
2023/03/03 03:38:28;;;;;;;72.50;39.67;;;2.00;99.90;;;;;;5105784;28;20782;-75
2023/03/03 03:40:55;;;;;;;75.18;39.75;;;2.10;99.90;;;;;;5104834;27;20575;-75
2023/03/03 03:43:21;;;;;;;68.18;37.33;;;2.00;99.90;;;;;;5113736;27;20396;-75
2023/03/03 03:45:47;;;;;;;81.53;40.08;;;2.10;99.90;;;;;;5102380;28;20043;-75
2023/03/03 03:48:13;;;;;;;77.85;38.75;;;2.10;99.90;;;;;;5104887;27;20556;-75
2023/03/03 03:50:38;;;;;;;87.07;41.20;;;2.10;99.90;;;;;;5106102;28;20718;-75
2023/03/03 03:53:06;;;;;;;79.57;40.65;;;2.10;99.90;;;;;;5100911;28;20082;-75
2023/03/03 03:55:32;;;;;;;76.65;40.63;;;2.10;99.90;;;;;;5089197;27;20122;-75
2023/03/03 03:57:58;;;;;;;68.22;37.05;;;2.10;99.90;;;;;;5106448;28;20040;-75
2023/03/03 04:00:24;;;;;;;79.70;39.20;;;2.20;99.90;;;;;;5105154;28;20076;-76
2023/03/03 04:02:50;;;;;;;71.38;37.40;;;2.20;99.90;;;;;;5104080;27;20076;-75
2023/03/03 04:05:16;;;;;;;83.63;41.60;;;2.20;99.90;;;;;;5109999;28;20122;-76
2023/03/03 04:07:42;;;;;;;88.78;40.10;;;2.20;99.90;;;;;;5120375;27;20043;-75
2023/03/03 04:10:08;;;;;;;92.32;42.40;;;2.20;99.90;;;;;;5107860;27;20059;-75
2023/03/03 04:12:37;;;;;;;71.57;35.17;;;2.20;99.90;;;;;;5111822;27;20779;-76
2023/03/03 04:15:09;;;;;;;87.25;32.85;;;2.20;99.90;;;;;;5108355;28;20099;-75
2023/03/03 04:17:35;;;;;;;52.58;27.52;;;2.20;99.90;;;;;;5107067;28;20532;-75
2023/03/03 04:20:02;;;;;;;51.72;24.52;;;2.20;99.90;;;;;;5113342;28;20043;-75
2023/03/03 04:22:32;;;;;;;73.90;28.52;;;2.20;99.90;;;;;;5123996;28;20047;-75
2023/03/03 04:25:04;;;;;;;71.03;28.67;;;2.20;99.90;;;;;;5123937;28;20392;-75
2023/03/03 04:27:34;;;;;;;49.92;24.75;;;2.20;99.90;;;;;;5124019;28;20051;-75
2023/03/03 04:30:01;;;;;;;44.08;23.15;;;2.20;99.90;;;;;;5120239;28;20043;-75
2023/03/03 04:32:26;;;;;;;67.38;27.63;;;2.20;99.90;;;;;;5107967;28;20066;-75
2023/03/03 04:34:53;;;;;;;145.30;34.60;;;2.20;99.90;;;;;;5125068;27;20047;-75
2023/03/03 04:37:19;;;;;;;62.38;26.48;;;2.20;99.90;;;;;;5118751;27;20518;-75
2023/03/03 04:39:45;;;;;;;48.00;23.52;;;2.20;99.90;;;;;;5114870;27;20046;-75
2023/03/03 04:42:10;;;;;;;47.00;24.17;;;2.20;99.90;;;;;;5125568;27;20047;-75
2023/03/03 04:44:36;;;;;;;57.53;25.80;;;2.20;99.90;;;;;;5105140;27;20118;-75
2023/03/03 04:47:02;;;;;;;57.35;25.88;;;2.20;99.90;;;;;;5120919;27;20055;-75
2023/03/03 04:49:28;;;;;;;102.32;31.48;;;2.10;99.90;;;;;;5122112;27;20504;-75
2023/03/03 04:51:54;;;;;;;54.13;25.38;;;2.10;99.90;;;;;;5145245;27;20061;-75
2023/03/03 04:54:19;;;;;;;139.25;35.88;;;2.10;99.90;;;;;;5120661;27;20071;-75
2023/03/03 04:56:45;;;;;;;144.98;36.72;;;2.10;99.90;;;;;;5099623;28;20871;-75
2023/03/03 04:59:11;;;;;;;93.57;30.15;;;2.10;99.90;;;;;;5114272;27;20510;-75
2023/03/03 05:01:37;;;;;;;120.38;34.08;;;2.10;99.90;;;;;;5124210;27;20091;-75
2023/03/03 05:04:02;;;;;;;146.52;36.60;;;2.10;99.90;;;;;;5122368;27;20445;-75
2023/03/03 05:06:28;;;;;;;71.28;26.92;;;2.00;99.90;;;;;;5122759;27;21167;-75
2023/03/03 05:08:55;;;;;;;49.83;25.42;;;1.90;99.90;;;;;;5119327;27;20570;-74
2023/03/03 05:11:21;;;;;;;48.40;23.25;;;2.00;99.90;;;;;;5117239;27;20055;-74
2023/03/03 05:13:46;;;;;;;48.80;24.13;;;2.00;99.90;;;;;;5125093;27;20538;-75
2023/03/03 05:16:13;;;;;;;48.75;24.30;;;2.00;99.90;;;;;;5138173;27;20530;-75
2023/03/03 05:18:40;;;;;;;44.17;23.33;;;2.10;99.90;;;;;;5123863;27;20600;-75
2023/03/03 05:21:06;;;;;;;48.85;24.38;;;2.00;99.90;;;;;;5122619;27;20051;-75
2023/03/03 05:23:32;;;;;;;127.45;31.58;;;2.10;99.90;;;;;;5110906;27;20047;-75
2023/03/03 05:25:58;;;;;;;186.15;34.50;;;2.10;99.90;;;;;;5121414;27;20044;-74
2023/03/03 05:28:23;;;;;;;76.10;27.98;;;2.00;99.90;;;;;;5124572;27;20051;-74
2023/03/03 05:30:49;;;;;;;42.50;23.35;;;2.00;99.90;;;;;;5138929;27;20044;-74
2023/03/03 05:33:16;;;;;;;32.70;20.00;;;2.00;99.90;;;;;;5115101;27;20043;-75
2023/03/03 05:35:42;;;;;;;42.60;24.13;;;2.00;99.90;;;;;;5122397;27;20415;-74
2023/03/03 05:38:08;;;;;;;34.83;19.83;;;2.10;99.90;;;;;;5094493;28;20044;-74
2023/03/03 05:40:34;;;;;;;32.58;19.95;;;2.10;99.90;;;;;;5116075;27;20043;-74
2023/03/03 05:42:59;;;;;;;35.28;20.25;;;2.10;99.90;;;;;;5124260;27;20052;-74
2023/03/03 05:45:25;;;;;;;27.17;17.35;;;2.10;99.90;;;;;;5119819;27;20043;-74
2023/03/03 05:47:51;;;;;;;32.00;19.13;;;2.10;99.90;;;;;;5119182;27;20040;-75
2023/03/03 05:50:18;;;;;;;30.23;18.95;;;2.10;99.90;;;;;;5115882;27;20086;-74
2023/03/03 05:52:46;;;;;;;28.20;17.40;;;2.20;99.90;;;;;;5117205;27;20052;-74
2023/03/03 05:55:12;;;;;;;28.35;18.48;;;2.20;99.90;;;;;;5119901;27;20085;-74
2023/03/03 05:57:38;;;;;;;27.95;14.85;;;2.20;99.90;;;;;;5123145;27;20552;-74
2023/03/03 06:00:05;;;;;;;24.27;15.38;;;2.20;99.90;;;;;;5112195;27;20411;-75
2023/03/03 06:02:31;;;;;;;22.58;15.68;;;2.20;99.90;;;;;;5122733;27;20051;-74
2023/03/03 06:04:56;;;;;;;25.42;16.92;;;2.20;99.90;;;;;;5117060;27;20039;-74
2023/03/03 06:07:22;;;;;;;22.02;14.98;;;2.20;99.90;;;;;;5139960;27;20091;-74
2023/03/03 06:09:48;;;;;;;28.02;16.10;;;2.20;99.90;;;;;;5129882;27;20601;-74
2023/03/03 06:12:13;;;;;;;23.52;15.30;;;2.20;99.90;;;;;;5121708;27;20054;-74
2023/03/03 06:14:39;;;;;;;21.23;15.35;;;2.20;99.90;;;;;;5115269;27;20035;-74
2023/03/03 06:17:05;;;;;;;24.65;14.93;;;2.20;99.90;;;;;;5120255;27;20046;-75
2023/03/03 06:19:30;;;;;;;29.85;17.05;;;2.20;99.90;;;;;;5129740;27;20121;-74
2023/03/03 06:21:56;;;;;;;29.45;16.65;;;2.20;99.90;;;;;;5101490;27;20054;-74
2023/03/03 06:24:24;;;;;;;23.92;15.93;;;2.20;99.90;;;;;;5127874;27;20038;-75
2023/03/03 06:26:50;;;;;;;25.58;13.90;;;2.20;99.90;;;;;;5128378;27;20035;-75
2023/03/03 06:29:16;;;;;;;21.52;14.60;;;2.20;99.90;;;;;;5116649;27;20118;-75
2023/03/03 06:31:43;;;;;;;25.77;13.25;;;2.20;99.90;;;;;;5116163;27;20038;-74
2023/03/03 06:34:09;;;;;;;22.65;12.80;;;2.20;99.90;;;;;;5113045;27;20061;-74
2023/03/03 06:36:35;;;;;;;19.63;12.00;;;2.20;99.90;;;;;;5112978;27;20050;-75
2023/03/03 06:39:01;;;;;;;18.48;11.98;;;2.20;99.90;;;;;;5107181;27;20045;-75
2023/03/03 06:41:26;;;;;;;22.27;12.93;;;2.20;99.90;;;;;;5110505;27;20035;-75
2023/03/03 06:43:52;;;;;;;18.05;12.13;;;2.20;99.90;;;;;;5121903;27;20100;-74
2023/03/03 06:46:18;;;;;;;21.30;12.88;;;2.20;99.90;;;;;;5124329;27;20050;-74
2023/03/03 06:48:43;;;;;;;17.65;11.57;;;2.20;99.90;;;;;;5109903;27;20046;-74
2023/03/03 06:51:30;;;;;;;22.77;13.45;;;2.20;99.90;;;;;;5117216;27;20084;-74
2023/03/03 06:53:58;;;;;;;15.95;12.32;;;2.20;99.90;;;;;;5115429;27;20050;-75
2023/03/03 06:56:25;;;;;;;20.25;12.75;;;2.20;99.90;;;;;;5112100;27;20610;-75
2023/03/03 06:58:57;;;;;;;17.08;11.38;;;2.20;99.90;;;;;;5123231;27;20049;-75
2023/03/03 07:01:22;;;;;;;36.65;16.55;;;2.20;99.90;;;;;;5120576;27;20099;-75
2023/03/03 07:03:49;;;;;;;28.10;15.82;;;2.20;99.90;;;;;;5116366;27;20503;-75
2023/03/03 07:06:23;;;;;;;24.02;15.52;;;2.30;99.90;;;;;;5122479;27;20063;-75
2023/03/03 07:08:51;;;;;;;23.55;16.10;;;2.30;99.90;;;;;;5091846;27;20043;-75
2023/03/03 07:11:19;;;;;;;25.50;15.13;;;2.30;99.90;;;;;;5102523;27;20461;-75
2023/03/03 07:13:53;;;;;;;21.67;14.38;;;2.30;99.90;;;;;;5120618;27;20042;-75
2023/03/03 07:16:25;;;;;;;24.40;14.07;;;2.30;99.90;;;;;;5132305;27;20054;-75
2023/03/03 07:18:52;;;;;;;21.85;14.18;;;2.40;99.90;;;;;;5123305;27;20074;-74
2023/03/03 07:21:37;;;;;;;23.25;13.43;;;2.40;99.90;;;;;;5123046;27;20049;-75
2023/03/03 07:24:27;;;;;;;19.50;12.60;;;2.40;99.90;;;;;;5141993;27;20049;-75
2023/03/03 07:27:06;;;;;;;34.45;15.05;;;2.50;99.90;;;;;;5133619;27;20039;-75
2023/03/03 07:29:33;;;;;;;29.33;16.33;;;2.50;99.90;;;;;;5119112;27;20670;-75
2023/03/03 07:32:00;;;;;;;29.52;16.58;;;2.50;99.90;;;;;;5122505;27;20647;-75
2023/03/03 07:34:36;;;;;;;47.40;17.00;;;2.50;99.90;;;;;;5110623;27;20531;-75
2023/03/03 07:37:12;;;;;;;26.73;15.02;;;2.60;99.90;;;;;;5128578;27;20091;-75
2023/03/03 07:39:41;;;;;;;30.92;17.50;;;2.60;99.90;;;;;;5120852;27;20434;-75
2023/03/03 07:42:19;;;;;;;26.58;17.50;;;2.60;99.90;;;;;;5111944;27;20593;-75
2023/03/03 07:44:47;;;;;;;23.15;16.02;;;2.70;99.90;;;;;;5124908;27;20051;-75
2023/03/03 07:47:26;;;;;;;25.50;17.13;;;2.70;99.90;;;;;;5123133;27;20038;-75
2023/03/03 07:50:15;;;;;;;28.35;16.92;;;2.70;99.90;;;;;;5128442;27;20094;-75
2023/03/03 07:53:13;;;;;;;32.08;16.50;;;2.80;99.90;;;;;;5120375;27;20043;-75
2023/03/03 07:55:40;;;;;;;;;;;2.80;99.90;;;;;;5109530;27;20055;-75
2023/03/03 07:58:13;;;;;;;24.20;14.32;;;2.80;99.90;;;;;;5115023;27;19973;-75
2023/03/03 08:00:39;;;;;;;29.90;16.15;;;2.80;99.90;;;;;;5113568;27;20063;-75
2023/03/03 08:03:16;;;;;;;22.70;14.45;;;2.80;99.90;;;;;;5111855;27;20109;-75
2023/03/03 08:05:51;;;;;;;31.20;15.75;;;2.90;99.90;;;;;;5121239;27;20058;-75
2023/03/03 08:08:41;;;;;;;39.58;17.30;;;2.90;99.90;;;;;;5111871;27;20407;-75
2023/03/03 08:11:08;;;;;;;28.25;17.52;;;2.90;99.90;;;;;;5141224;27;20107;-75
2023/03/03 08:13:34;;;;;;;25.13;14.75;;;2.90;99.90;;;;;;5119422;27;20055;-74
2023/03/03 08:16:08;;;;;;;34.53;18.10;;;3.00;99.90;;;;;;5111804;28;20074;-75
2023/03/03 08:18:40;;;;;;;49.17;19.00;;;3.00;99.90;;;;;;5131641;27;20047;-75
2023/03/03 08:21:21;;;;;;;34.35;17.73;;;3.10;99.90;;;;;;5115027;28;20164;-75
2023/03/03 08:23:50;;;;;;;25.92;16.52;;;3.10;99.90;;;;;;5122284;28;20124;-74
2023/03/03 08:26:26;;;;;;;23.10;14.85;;;3.10;99.90;;;;;;5120647;28;20122;-75
2023/03/03 08:28:54;;;;;;;41.05;20.05;;;3.20;99.90;;;;;;5107682;28;20577;-76
2023/03/03 08:31:20;;;;;;;36.97;17.85;;;3.20;99.90;;;;;;5106968;28;20051;-75
2023/03/03 08:33:46;;;;;;;28.10;16.85;;;3.30;99.90;;;;;;5089516;28;20040;-75
2023/03/03 08:36:13;;;;;;;29.00;17.65;;;3.40;99.90;;;;;;5116308;28;20048;-75
2023/03/03 08:38:40;;;;;;;34.40;18.00;;;3.40;99.90;;;;;;5104570;28;20729;-75
2023/03/03 08:41:06;;;;;;;26.63;15.60;;;3.50;99.90;;;;;;5120872;28;20134;-75
2023/03/03 08:43:31;;;;;;;22.55;14.90;;;3.50;99.90;;;;;;5139831;27;20714;-76
2023/03/03 08:46:00;;;;;;;24.02;15.32;;;3.60;99.90;;;;;;5115097;28;20047;-76
2023/03/03 08:48:27;;;;;;;28.17;15.23;;;3.60;99.90;;;;;;5118805;28;20068;-76
2023/03/03 08:51:02;;;;;;;22.60;15.27;;;3.70;99.90;;;;;;5126573;28;20117;-75
2023/03/03 08:53:28;;;;;;;27.05;15.93;;;3.80;99.90;;;;;;5122942;28;20057;-75
2023/03/03 08:55:54;;;;;;;24.80;13.85;;;3.80;99.90;;;;;;5125475;28;20051;-75
2023/03/03 08:58:20;;;;;;;24.25;13.13;;;3.90;99.90;;;;;;5105944;28;20039;-75
2023/03/03 09:00:46;;;;;;;18.08;11.13;;;3.90;99.90;;;;;;5115475;28;20051;-75
2023/03/03 09:03:12;;;;;;;23.77;13.27;;;4.00;99.90;;;;;;5133482;27;20590;-75
2023/03/03 09:05:38;;;;;;;16.92;11.20;;;4.10;99.90;;;;;;5126609;28;20043;-75
2023/03/03 09:08:05;;;;;;;37.83;14.43;;;4.20;99.90;;;;;;5121879;28;20047;-75
2023/03/03 09:10:32;;;;;;;19.02;12.00;;;4.30;99.90;;;;;;5118558;28;20042;-75
2023/03/03 09:13:03;;;;;;;17.88;12.70;;;4.30;99.90;;;;;;5105442;28;20086;-75
2023/03/03 09:15:32;;;;;;;17.48;11.20;;;4.40;99.90;;;;;;5108388;28;20047;-75
2023/03/03 09:18:05;;;;;;;20.10;13.38;;;4.40;99.90;;;;;;5121971;28;20043;-75
2023/03/03 09:20:45;;;;;;;16.83;11.40;;;4.50;99.90;;;;;;5118235;27;20051;-75
2023/03/03 09:23:26;;;;;;;22.20;12.75;;;4.40;99.90;;;;;;5124397;27;20039;-75
2023/03/03 09:25:52;;;;;;;19.30;13.48;;;4.40;99.90;;;;;;5124423;27;20046;-75
2023/03/03 09:28:28;;;;;;;19.50;12.90;;;4.40;99.90;;;;;;5116129;27;20118;-75
2023/03/03 09:31:00;;;;;;;18.55;12.23;;;4.30;99.90;;;;;;5126182;27;20584;-75
2023/03/03 09:33:42;;;;;;;17.25;11.23;;;4.40;99.90;;;;;;5128151;27;20423;-75
2023/03/03 09:36:21;;;;;;;23.08;12.48;;;4.40;99.90;;;;;;5114587;27;20176;-75
2023/03/03 09:38:46;;;;;;;;;;;4.40;99.90;;;;;;5116591;27;20906;-75
2023/03/03 09:41:31;;;;;;;17.50;11.13;;;4.30;99.90;;;;;;5127253;27;19966;-75
2023/03/03 09:44:16;;;;;;;25.05;14.07;;;4.30;99.90;;;;;;5118004;27;20048;-75
2023/03/03 09:47:02;;;;;;;21.48;13.02;;;4.40;99.90;;;;;;5120931;27;20058;-75
2023/03/03 09:49:33;;;;;;;22.70;13.63;;;4.30;99.90;;;;;;5128474;27;20040;-75
2023/03/03 09:52:23;;;;;;;26.55;13.48;;;4.30;99.90;;;;;;5129314;27;20043;-75
2023/03/03 09:54:57;;;;;;;16.98;11.13;;;4.30;99.90;;;;;;5122909;27;20043;-75
2023/03/03 09:57:58;;;;;;;15.13;11.60;;;4.30;99.90;;;;;;5119838;27;20051;-75
2023/03/03 10:00:42;;;;;;;18.02;9.75;;;4.30;99.90;;;;;;5125641;27;20055;-76
2023/03/03 10:03:27;;;;;;;13.50;9.40;;;4.30;99.90;;;;;;5128537;27;20062;-75
2023/03/03 10:06:03;;;;;;;13.90;9.93;;;4.40;99.90;;;;;;5115826;27;20043;-75
2023/03/03 10:08:53;;;;;;;10.77;9.65;;;4.40;99.90;;;;;;5123320;27;20050;-75
2023/03/03 10:11:33;;;;;;;12.40;9.25;;;4.40;99.90;;;;;;5124820;27;20470;-75
2023/03/03 10:14:23;;;;;;;12.68;8.57;;;4.40;99.90;;;;;;5107958;27;20059;-75
2023/03/03 10:16:55;;;;;;;15.05;9.05;;;4.40;99.90;;;;;;5108682;27;20147;-75
2023/03/03 10:19:23;;;;;;;12.43;9.10;;;4.50;99.90;;;;;;5117953;27;20500;-75
2023/03/03 10:22:23;;;;;;;;;;;4.50;99.90;;;;;;5114070;27;20567;-75
2023/03/03 10:25:16;;;;;;;13.60;9.45;;;4.50;99.90;;;;;;5060236;27;19928;-75
2023/03/03 10:27:58;;;;;;;16.65;11.02;;;4.60;99.90;;;;;;5120997;27;20050;-75
2023/03/03 10:30:56;;;;;;;13.57;10.45;;;4.60;99.90;;;;;;5138132;27;20050;-74
2023/03/03 10:33:29;;;;;;;12.05;9.98;;;4.70;99.90;;;;;;5114069;27;20048;-74
2023/03/03 10:36:03;;;;;;;10.95;9.77;;;4.70;99.90;;;;;;5122420;27;20135;-75
2023/03/03 10:38:44;;;;;;;14.90;10.52;;;4.80;99.90;;;;;;5114094;27;20477;-75
2023/03/03 10:41:27;;;;;;;14.98;10.35;;;4.90;99.90;;;;;;5090624;28;20047;-76
2023/03/03 10:44:17;;;;;;;14.65;10.18;;;4.90;99.90;;;;;;5115873;27;20062;-76
2023/03/03 10:47:14;;;;;;;16.17;11.32;;;5.00;99.90;;;;;;5118263;27;20121;-76
2023/03/03 10:50:03;;;;;;;13.15;10.32;;;5.10;99.90;;;;;;5114086;27;20051;-76
2023/03/03 10:52:56;;;;;;;12.98;10.50;;;5.10;99.90;;;;;;5123551;27;20055;-76
2023/03/03 10:55:51;;;;;;;19.15;10.07;;;5.20;99.90;;;;;;5104516;27;20039;-75
2023/03/03 10:58:53;;;;;;;11.73;10.50;;;5.20;99.90;;;;;;5116024;27;20047;-75
2023/03/03 11:01:51;;;;;;;14.65;10.35;;;5.30;99.90;;;;;;5111874;27;20144;-76
2023/03/03 11:04:49;;;;;;;15.88;9.63;;;5.30;99.90;;;;;;5098357;28;20534;-76
2023/03/03 11:07:26;;;;;;;10.88;8.68;;;5.40;99.90;;;;;;5094204;28;20131;-76
2023/03/03 11:10:23;;;;;;;12.43;8.18;;;5.50;99.90;;;;;;5100676;28;20050;-75
2023/03/03 11:13:27;;;;;;;8.75;7.85;;;5.60;99.90;;;;;;5095072;28;20048;-76
2023/03/03 11:16:18;;;;;;;10.65;8.57;;;5.70;99.90;;;;;;5100649;27;20051;-75
2023/03/03 11:21:31;;;;;;;17.52;7.22;;;5.80;99.90;;;;;;4966773;22;20074;-76
2023/03/03 11:24:35;;;;;;;10.35;8.50;;;6.00;99.90;;;;;;4984564;28;20088;-76
2023/03/03 11:27:22;;;;;;;11.73;8.07;;;6.00;99.90;;;;;;4988996;28;20038;-75
2023/03/03 11:30:22;;;;;;;9.43;8.03;;;6.20;99.90;;;;;;5007463;28;20050;-75
2023/03/03 11:33:00;;;;;;;10.10;8.32;;;6.30;99.90;;;;;;4972809;28;20321;-74
2023/03/03 11:35:34;;;;;;;7.72;6.95;;;6.40;99.90;;;;;;4982620;28;20045;-75
2023/03/03 11:38:33;;;;;;;8.00;6.90;;;6.50;99.90;;;;;;5006169;28;20056;-76
2023/03/03 11:41:08;;;;;;;12.68;7.50;;;6.60;99.90;;;;;;4988214;28;20107;-76
2023/03/03 11:43:39;;;;;;;12.40;7.28;;;6.60;99.90;;;;;;4981856;28;20153;-76
2023/03/03 11:46:14;;;;;;;12.55;7.60;;;6.70;99.90;;;;;;5006097;28;20051;-76
2023/03/03 11:49:03;;;;;;;10.55;8.27;;;6.80;99.90;;;;;;5006955;28;20544;-76
2023/03/03 11:51:52;;;;;;;9.95;7.40;;;6.90;99.90;;;;;;4960497;28;20072;-76
2023/03/03 11:54:44;;;;;;;10.50;7.82;;;7.00;99.90;;;;;;4985922;28;20109;-76
2023/03/03 11:57:34;;;;;;;12.77;7.15;;;7.20;99.90;;;;;;4971864;28;20089;-76
2023/03/03 12:00:25;;;;;;;8.45;6.35;;;7.20;99.90;;;;;;4999663;28;20050;-76
2023/03/03 12:03:13;;;;;;;11.82;7.38;;;7.30;99.90;;;;;;4968855;28;20812;-76
2023/03/03 12:06:05;;;;;;;9.23;7.13;;;7.30;99.90;;;;;;4992993;28;20502;-76
2023/03/03 12:08:57;;;;;;;9.45;5.80;;;7.30;99.90;;;;;;4991327;28;20053;-76
2023/03/03 12:11:45;;;;;;;12.05;6.38;;;7.40;99.90;;;;;;4996362;28;20089;-76
2023/03/03 12:14:30;;;;;;;9.27;6.33;;;7.50;99.90;;;;;;5007087;28;20088;-76
2023/03/03 12:17:20;;;;;;;7.35;5.72;;;7.60;99.90;;;;;;5006557;28;20301;-76
2023/03/03 12:20:16;;;;;;;6.13;5.50;;;7.70;99.90;;;;;;5003748;28;20069;-75
2023/03/03 12:23:06;;;;;;;4.82;4.40;;;7.70;99.90;;;;;;5006398;28;20085;-75
2023/03/03 12:25:49;;;;;;;8.73;4.88;;;7.80;99.90;;;;;;5006966;28;20057;-75
2023/03/03 12:28:19;;;;;;;6.35;5.15;;;7.80;99.90;;;;;;5001235;28;20088;-77
2023/03/03 12:31:03;;;;;;;5.93;4.60;;;7.80;99.90;;;;;;5001384;28;20069;-76
2023/03/03 12:33:59;;;;;;;6.28;5.53;;;7.90;99.90;;;;;;4990154;28;20046;-75
2023/03/03 12:36:46;;;;;;;22.70;5.18;;;8.00;99.90;;;;;;4999034;28;20529;-75
2023/03/03 12:39:23;;;;;;;7.93;4.82;;;8.00;99.90;;;;;;4982310;28;20045;-75
2023/03/03 12:42:00;;;;;;;4.85;4.45;;;8.00;99.90;;;;;;4985413;28;20391;-76
2023/03/03 12:44:54;;;;;;;6.07;4.53;;;8.00;99.90;;;;;;5007016;28;20580;-76
2023/03/03 12:47:35;;;;;;;8.23;4.93;;;8.00;99.90;;;;;;5007785;28;20053;-76
2023/03/03 12:50:09;;;;;;;5.43;4.55;;;7.90;99.90;;;;;;5005463;28;20851;-76
2023/03/03 12:52:44;;;;;;;10.07;9.13;;;7.90;99.90;;;;;;5006534;28;20569;-76
2023/03/03 12:55:23;;;;;;;7.22;6.22;;;8.10;99.90;;;;;;5000752;28;20089;-76
2023/03/03 12:58:29;;;;;;;8.20;5.97;;;8.20;99.90;;;;;;4999615;28;20061;-76
2023/03/03 13:01:17;;;;;;;5.20;4.28;;;8.30;99.90;;;;;;4992143;28;20061;-75
2023/03/03 13:03:54;;;;;;;5.82;3.88;;;8.40;99.90;;;;;;5011251;28;20092;-74
2023/03/03 13:06:35;;;;;;;4.47;3.97;;;8.40;99.90;;;;;;4990612;28;20046;-75
2023/03/03 13:09:47;;;;;;;4.50;2.90;;;8.40;99.90;;;;;;5007986;28;20395;-75
2023/03/03 13:12:12;;;;;;;3.75;3.28;;;8.40;99.90;;;;;;4967854;28;20056;-74